createdAt,value
2023-01-22T00:00:19.838Z,77.90
2023-01-22T00:03:44.696Z,77.40
2023-01-22T00:07:08.489Z,77.60
2023-01-22T00:10:32.447Z,77.60
2023-01-22T00:13:54.580Z,77.60
2023-01-22T00:17:16.758Z,77.40
2023-01-22T00:20:40.819Z,77.00
2023-01-22T00:24:03.795Z,77.10
2023-01-22T00:27:25.945Z,76.90
2023-01-22T00:30:48.199Z,76.90
2023-01-22T00:34:10.380Z,76.70
2023-01-22T00:37:32.543Z,76.50
2023-01-22T00:40:54.748Z,76.60
2023-01-22T00:44:17.033Z,76.40
2023-01-22T00:47:39.415Z,76.40
2023-01-22T00:51:01.816Z,76.10
2023-01-22T00:54:24.095Z,76.10
2023-01-22T00:57:46.383Z,76.10
2023-01-22T01:01:08.802Z,75.90
2023-01-22T01:04:30.933Z,75.70
2023-01-22T01:07:53.173Z,75.60
2023-01-22T01:11:21.483Z,75.60
2023-01-22T01:14:43.705Z,75.10
2023-01-22T01:18:06.045Z,75.00
2023-01-22T01:21:28.732Z,74.80
2023-01-22T01:24:50.821Z,74.70
2023-01-22T01:28:12.931Z,74.60
2023-01-22T01:31:35.027Z,74.40
2023-01-22T01:34:57.168Z,74.50
2023-01-22T01:38:19.409Z,74.50
2023-01-22T01:41:41.531Z,74.30
2023-01-22T01:45:23.094Z,74.50
2023-01-22T01:48:47.564Z,74.30
2023-01-22T01:52:11.565Z,74.50
2023-01-22T01:55:35.280Z,74.60
2023-01-22T01:59:00.684Z,74.50
2023-01-22T02:02:23.091Z,74.60
2023-01-22T02:05:45.253Z,74.60
2023-01-22T02:09:07.657Z,74.60
2023-01-22T02:12:30.730Z,74.50
2023-01-22T02:15:53.000Z,74.40
2023-01-22T02:19:15.222Z,74.50
2023-01-22T02:22:38.053Z,74.60
2023-01-22T02:26:00.159Z,74.50
2023-01-22T02:29:22.676Z,74.30
2023-01-22T02:32:44.823Z,74.20
2023-01-22T02:36:08.854Z,74.20
2023-01-22T02:39:31.011Z,74.00
2023-01-22T02:42:56.389Z,73.80
2023-01-22T02:46:18.711Z,73.80
2023-01-22T02:49:40.994Z,73.50
2023-01-22T02:53:03.795Z,73.40
2023-01-22T02:56:26.186Z,73.50
2023-01-22T02:59:48.420Z,73.50
2023-01-22T03:03:15.512Z,73.50
2023-01-22T03:06:39.807Z,73.30
2023-01-22T03:10:02.800Z,73.40
2023-01-22T03:13:44.708Z,73.30
2023-01-22T03:17:25.984Z,73.30
2023-01-22T03:21:07.128Z,73.40
2023-01-22T03:24:29.328Z,73.50
2023-01-22T03:28:16.462Z,73.30
2023-01-22T03:31:43.276Z,73.30
2023-01-22T03:35:05.561Z,73.20
2023-01-22T03:38:41.869Z,73.20
2023-01-22T03:42:09.121Z,73.20
2023-01-22T03:45:34.638Z,73.20
2023-01-22T03:48:58.135Z,73.20
2023-01-22T03:52:21.541Z,73.20
2023-01-22T03:55:43.726Z,73.00
2023-01-22T03:59:06.379Z,73.10
2023-01-22T04:02:29.303Z,72.90
2023-01-22T04:06:05.577Z,72.80
2023-01-22T04:09:28.485Z,72.70
2023-01-22T04:12:52.569Z,72.60
2023-01-22T04:16:17.328Z,72.50
2023-01-22T04:19:58.269Z,72.40
2023-01-22T04:23:40.618Z,72.30
2023-01-22T04:27:03.104Z,72.00
2023-01-22T04:30:25.446Z,73.10
2023-01-22T04:33:56.055Z,72.10
2023-01-22T04:37:22.098Z,72.10
2023-01-22T04:40:44.310Z,72.20
2023-01-22T04:44:06.420Z,72.30
2023-01-22T04:47:29.176Z,72.40
2023-01-22T04:50:51.425Z,72.20
2023-01-22T04:54:14.223Z,72.30
2023-01-22T04:57:36.458Z,72.30
2023-01-22T05:00:58.751Z,72.40
2023-01-22T05:04:21.795Z,72.40
2023-01-22T05:07:44.210Z,72.40
2023-01-22T05:11:06.660Z,72.20
2023-01-22T05:14:37.557Z,72.30
2023-01-22T05:18:00.927Z,71.90
2023-01-22T05:21:23.376Z,71.60
2023-01-22T05:24:45.696Z,71.50
2023-01-22T05:28:07.934Z,71.40
2023-01-22T05:31:48.060Z,71.40
2023-01-22T05:35:23.950Z,71.40
2023-01-22T05:38:46.603Z,71.50
2023-01-22T05:42:12.751Z,70.70
2023-01-22T05:45:35.229Z,70.60
2023-01-22T05:49:23.203Z,71.50
2023-01-22T05:52:53.468Z,71.70
2023-01-22T05:56:16.661Z,71.70
2023-01-22T05:59:39.124Z,71.70
2023-01-22T06:03:03.315Z,71.60
2023-01-22T06:06:35.017Z,71.50
2023-01-22T06:09:57.420Z,71.50
2023-01-22T06:13:19.625Z,71.50
2023-01-22T06:16:46.521Z,71.60
2023-01-22T06:20:22.928Z,71.60
2023-01-22T06:23:45.090Z,71.50
2023-01-22T06:27:08.275Z,71.50
2023-01-22T06:30:36.910Z,71.50
2023-01-22T06:33:59.129Z,71.40
2023-01-22T06:37:22.990Z,71.20
2023-01-22T06:40:53.525Z,71.10
2023-01-22T06:44:17.696Z,72.10
2023-01-22T06:47:43.227Z,71.30
2023-01-22T06:51:05.599Z,72.10
2023-01-22T06:54:27.857Z,72.00
2023-01-22T06:57:49.988Z,73.40
2023-01-22T07:01:12.147Z,72.70
2023-01-22T07:04:34.373Z,73.10
2023-01-22T07:07:56.503Z,73.20
2023-01-22T07:11:19.085Z,70.80
2023-01-22T07:14:41.229Z,71.60
2023-01-22T07:18:03.423Z,73.50
2023-01-22T07:21:27.130Z,72.40
2023-01-22T07:24:49.299Z,73.40
2023-01-22T07:28:12.831Z,73.20
2023-01-22T07:31:35.140Z,73.20
2023-01-22T07:34:57.279Z,73.10
2023-01-22T07:38:19.460Z,73.10
2023-01-22T07:41:41.707Z,72.40
2023-01-22T07:45:06.513Z,72.60
2023-01-22T07:48:28.807Z,72.90
2023-01-22T07:51:50.912Z,72.70
2023-01-22T07:55:13.059Z,72.60
2023-01-22T07:58:35.244Z,72.60
2023-01-22T08:01:57.612Z,72.60
2023-01-22T08:05:19.832Z,72.60
2023-01-22T08:08:42.686Z,72.10
2023-01-22T08:12:05.203Z,70.10
2023-01-22T08:15:27.393Z,70.40
2023-01-22T08:18:49.508Z,72.10
2023-01-22T08:22:11.630Z,73.30
2023-01-22T08:25:33.820Z,72.20
2023-01-22T08:28:56.000Z,73.40
2023-01-22T08:32:18.757Z,73.40
2023-01-22T08:35:40.952Z,72.60
2023-01-22T08:39:03.254Z,73.40
2023-01-22T08:42:25.455Z,72.00
2023-01-22T08:45:48.616Z,70.70
2023-01-22T08:49:10.889Z,70.70
2023-01-22T08:52:33.047Z,70.20
2023-01-22T08:55:55.159Z,71.40
2023-01-22T08:59:17.329Z,71.60
2023-01-22T09:02:39.445Z,71.70
2023-01-22T09:06:01.608Z,71.30
2023-01-22T09:09:23.757Z,74.60
2023-01-22T09:12:45.943Z,73.20
2023-01-22T09:16:11.056Z,72.60
2023-01-22T09:19:33.290Z,74.70
2023-01-22T09:22:55.441Z,73.70
2023-01-22T09:26:17.626Z,73.40
2023-01-22T09:29:39.769Z,73.80
2023-01-22T09:33:02.297Z,74.30
2023-01-22T09:36:24.740Z,74.40
2023-01-22T09:39:50.525Z,74.70
2023-01-22T09:43:21.367Z,74.70
2023-01-22T09:46:45.665Z,74.70
2023-01-22T09:50:13.040Z,74.70
2023-01-22T09:53:35.223Z,74.70
2023-01-22T09:56:59.701Z,74.60
2023-01-22T10:00:30.092Z,75.00
2023-01-22T10:03:58.999Z,76.50
2023-01-22T10:07:24.076Z,74.60
2023-01-22T10:10:46.566Z,77.60
2023-01-22T10:14:12.676Z,77.30
2023-01-22T10:17:35.631Z,77.90
2023-01-22T10:20:59.963Z,77.50
2023-01-22T10:24:22.090Z,75.60
2023-01-22T10:27:44.688Z,75.40
2023-01-22T10:31:19.670Z,74.70
2023-01-22T10:34:41.934Z,76.90
2023-01-22T10:38:04.167Z,77.10
2023-01-22T10:41:29.642Z,77.60
2023-01-22T10:45:09.193Z,77.90
2023-01-22T10:48:31.970Z,77.60
2023-01-22T10:51:58.716Z,76.90
2023-01-22T10:55:22.541Z,77.40
2023-01-22T10:58:47.556Z,76.60
2023-01-22T11:02:21.464Z,76.70
2023-01-22T11:05:45.853Z,76.80
2023-01-22T11:09:12.129Z,77.10
2023-01-22T11:12:42.534Z,77.00
2023-01-22T11:19:36.870Z,76.20
2023-01-22T11:23:03.440Z,76.70
2023-01-22T11:26:31.725Z,77.90
2023-01-22T11:30:00.004Z,78.30
2023-01-22T11:33:22.173Z,78.40
2023-01-22T11:36:56.780Z,77.70
2023-01-22T11:40:32.205Z,76.10
2023-01-22T11:44:13.173Z,77.10
2023-01-22T11:47:53.733Z,78.10
2023-01-22T11:51:21.974Z,78.60
2023-01-22T11:54:56.476Z,78.00
2023-01-22T11:58:27.814Z,80.60
2023-01-22T12:02:05.068Z,80.60
2023-01-22T12:05:28.343Z,81.60
2023-01-22T12:08:54.797Z,82.10
2023-01-22T12:12:29.064Z,82.60
2023-01-22T12:15:58.556Z,82.90
2023-01-22T12:19:20.763Z,83.50
2023-01-22T12:22:42.833Z,84.00
2023-01-22T12:26:07.763Z,83.20
2023-01-22T12:29:33.011Z,81.30
2023-01-22T12:32:58.323Z,80.20
2023-01-22T12:36:22.547Z,80.50
2023-01-22T12:39:47.669Z,82.20
2023-01-22T12:43:10.109Z,82.70
2023-01-22T12:46:42.822Z,83.70
2023-01-22T12:50:15.759Z,82.90
2023-01-22T12:53:39.220Z,82.50
2023-01-22T12:57:20.734Z,81.70
2023-01-22T13:00:42.981Z,81.50
2023-01-22T13:04:06.806Z,78.40
2023-01-22T13:07:28.964Z,81.90
2023-01-22T13:10:53.187Z,80.20
2023-01-22T13:14:28.743Z,80.50
2023-01-22T13:18:08.263Z,80.00
2023-01-22T13:21:32.434Z,80.20
2023-01-22T13:24:55.894Z,79.80
2023-01-22T13:28:18.847Z,79.30
2023-01-22T13:31:41.109Z,78.80
2023-01-22T13:35:04.147Z,78.30
2023-01-22T13:38:27.416Z,79.30
2023-01-22T13:41:51.350Z,80.10
2023-01-22T13:45:19.664Z,80.40
2023-01-22T13:48:42.144Z,80.60
2023-01-22T13:52:06.353Z,80.70
2023-01-22T13:55:30.208Z,80.80
2023-01-22T13:58:52.347Z,80.00
2023-01-22T14:02:20.315Z,79.80
2023-01-22T14:05:42.500Z,81.10
2023-01-22T14:09:05.003Z,80.30
2023-01-22T14:12:27.554Z,79.10
2023-01-22T14:15:59.653Z,79.60
2023-01-22T14:19:21.808Z,79.60
2023-01-22T14:22:44.009Z,79.70
2023-01-22T14:26:07.394Z,80.00
2023-01-22T14:29:29.663Z,80.20
2023-01-22T14:32:51.946Z,81.00
2023-01-22T14:36:14.444Z,80.40
2023-01-22T14:39:36.586Z,80.30
2023-01-22T14:43:02.472Z,79.50
2023-01-22T14:46:24.632Z,80.00
2023-01-22T14:49:46.842Z,79.70
2023-01-22T14:53:09.477Z,79.50
2023-01-22T14:56:31.605Z,79.20
2023-01-22T14:59:53.891Z,79.90
2023-01-22T15:03:16.023Z,79.70
2023-01-22T15:06:38.153Z,80.00
2023-01-22T15:10:00.938Z,80.40
2023-01-22T15:13:23.026Z,80.50
2023-01-22T15:16:45.288Z,79.50
2023-01-22T15:20:07.851Z,79.60
2023-01-22T15:23:33.828Z,77.40
2023-01-22T15:26:55.977Z,77.50
2023-01-22T15:30:18.478Z,77.90
2023-01-22T15:33:40.943Z,78.10
2023-01-22T15:37:03.720Z,77.90
2023-01-22T15:40:25.888Z,78.20
2023-01-22T15:43:50.905Z,78.40
2023-01-22T15:47:14.403Z,78.60
2023-01-22T15:50:36.558Z,79.10
2023-01-22T15:53:59.562Z,79.20
2023-01-22T15:57:21.752Z,78.50
2023-01-22T16:00:43.905Z,74.70
2023-01-22T16:04:06.116Z,73.90
2023-01-22T16:07:28.248Z,77.40
2023-01-22T16:10:50.363Z,76.60
2023-01-22T16:14:12.588Z,77.80
2023-01-22T16:17:34.710Z,77.40
2023-01-22T16:21:00.040Z,77.40
2023-01-22T16:24:22.175Z,76.90
2023-01-22T16:27:44.883Z,77.00
2023-01-22T16:31:08.331Z,76.10
2023-01-22T16:34:30.575Z,75.90
2023-01-22T16:37:52.691Z,72.10
2023-01-22T16:41:24.415Z,75.50
2023-01-22T16:44:47.398Z,76.30
2023-01-22T16:48:09.846Z,76.50
2023-01-22T16:51:36.791Z,77.00
2023-01-22T16:54:59.095Z,76.80
2023-01-22T16:58:21.244Z,77.00
2023-01-22T17:01:43.388Z,77.30
2023-01-22T17:05:08.657Z,77.80
2023-01-22T17:08:30.772Z,77.80
2023-01-22T17:11:53.692Z,77.70
2023-01-22T17:15:15.854Z,78.40
2023-01-22T17:18:37.945Z,78.40
2023-01-22T17:22:00.184Z,78.90
2023-01-22T17:25:22.896Z,79.80
2023-01-22T17:28:45.987Z,79.30
2023-01-22T17:32:08.369Z,77.20
2023-01-22T17:35:30.571Z,77.00
2023-01-22T17:38:52.682Z,77.10
2023-01-22T17:41:54.777Z,77.20
2023-01-22T17:44:56.620Z,77.30
2023-01-22T17:47:59.945Z,77.30
2023-01-22T17:51:03.922Z,77.30
2023-01-22T17:54:06.316Z,77.20
2023-01-22T17:57:09.079Z,77.50
2023-01-22T18:00:11.252Z,77.30
2023-01-22T18:03:14.542Z,78.70
2023-01-22T18:06:16.813Z,79.00
2023-01-22T18:09:20.605Z,79.00
2023-01-22T18:12:22.604Z,79.00
2023-01-22T18:15:24.496Z,78.50
2023-01-22T18:18:44.946Z,78.50
2023-01-22T18:22:07.075Z,77.50
2023-01-22T18:25:31.817Z,77.30
2023-01-22T18:28:54.917Z,75.80
2023-01-22T18:32:17.076Z,76.20
2023-01-22T18:35:42.922Z,77.10
2023-01-22T18:39:06.842Z,77.90
2023-01-22T18:42:30.003Z,77.60
2023-01-22T18:45:52.161Z,77.00
2023-01-22T18:49:19.010Z,75.70
2023-01-22T18:52:41.176Z,77.60
2023-01-22T18:56:04.903Z,78.10
2023-01-22T18:59:27.080Z,75.80
2023-01-22T19:02:56.205Z,76.90
2023-01-22T19:06:19.781Z,77.80
2023-01-22T19:09:42.313Z,76.00
2023-01-22T19:13:04.569Z,78.50
2023-01-22T19:16:27.635Z,78.40
2023-01-22T19:19:49.813Z,77.60
2023-01-22T19:23:12.002Z,78.20
2023-01-22T19:26:34.979Z,76.80
2023-01-22T19:29:57.136Z,77.90
2023-01-22T19:33:19.334Z,77.90
2023-01-22T19:36:41.466Z,78.20
2023-01-22T19:40:03.762Z,76.30
2023-01-22T19:43:26.014Z,77.00
2023-01-22T19:46:48.161Z,76.60
2023-01-22T19:50:10.696Z,79.20
2023-01-22T19:53:33.592Z,77.10
2023-01-22T19:56:55.987Z,78.30
2023-01-22T20:00:18.400Z,78.80
2023-01-22T20:03:40.561Z,74.70
2023-01-22T20:07:05.767Z,72.50
2023-01-22T20:10:27.878Z,75.90
2023-01-22T20:13:50.030Z,77.80
2023-01-22T20:17:16.680Z,78.30
2023-01-22T20:20:38.855Z,78.40
2023-01-22T20:24:01.075Z,77.90
2023-01-22T20:27:23.300Z,77.40
2023-01-22T20:30:45.905Z,79.30
2023-01-22T20:34:08.049Z,77.20
2023-01-22T20:37:30.305Z,77.70
2023-01-22T20:40:52.701Z,79.60
2023-01-22T20:44:15.093Z,80.00
2023-01-22T20:47:37.588Z,80.60
2023-01-22T20:51:00.158Z,78.50
2023-01-22T20:54:22.490Z,76.60
2023-01-22T20:57:44.624Z,77.10
2023-01-22T21:01:08.429Z,77.30
2023-01-22T21:04:30.738Z,77.40
2023-01-22T21:07:52.859Z,78.40
2023-01-22T21:11:17.994Z,77.80
2023-01-22T21:14:40.207Z,77.80
2023-01-22T21:18:02.459Z,77.90
2023-01-22T21:21:25.050Z,78.50
2023-01-22T21:24:47.189Z,78.30
2023-01-22T21:28:10.718Z,78.30
2023-01-22T21:31:32.926Z,78.20
2023-01-22T21:34:55.182Z,78.30
2023-01-22T21:38:17.329Z,77.90
2023-01-22T21:41:39.756Z,78.30
2023-01-22T21:45:20.441Z,78.10
2023-01-22T21:48:42.677Z,77.30
2023-01-22T21:52:05.947Z,78.30
2023-01-22T21:55:30.090Z,76.80
2023-01-22T21:58:52.247Z,78.40
2023-01-22T22:02:15.825Z,78.30
2023-01-22T22:05:40.079Z,78.00
2023-01-22T22:09:03.238Z,78.20
2023-01-22T22:12:27.713Z,78.10
2023-01-22T22:15:50.028Z,78.00
2023-01-22T22:19:13.087Z,77.40
2023-01-22T22:22:35.282Z,77.60
2023-01-22T22:25:58.114Z,77.60
2023-01-22T22:29:20.319Z,77.40
2023-01-22T22:32:42.519Z,77.00
2023-01-22T22:36:04.936Z,76.90
2023-01-22T22:39:27.107Z,76.70
2023-01-22T22:42:49.189Z,76.30
2023-01-22T22:46:16.112Z,76.20
2023-01-22T22:49:38.302Z,75.90
2023-01-22T22:53:02.190Z,75.70
2023-01-22T22:56:24.494Z,75.90
2023-01-22T22:59:46.591Z,75.80
2023-01-22T23:03:09.024Z,75.60
2023-01-22T23:06:33.091Z,75.70
2023-01-22T23:10:04.257Z,75.80
2023-01-22T23:13:26.389Z,75.60
2023-01-22T23:16:49.120Z,75.40
2023-01-22T23:20:11.722Z,75.50
2023-01-22T23:23:34.399Z,75.40
2023-01-22T23:26:57.061Z,75.30
2023-01-22T23:30:19.677Z,74.90
2023-01-22T23:33:42.494Z,75.10
2023-01-22T23:37:04.638Z,75.10
2023-01-22T23:40:26.770Z,74.80
2023-01-22T23:43:49.930Z,74.90
2023-01-22T23:47:12.105Z,74.70
2023-01-22T23:50:34.262Z,74.60
2023-01-22T23:53:56.620Z,74.60
2023-01-22T23:57:18.781Z,74.70
